Time;durP1;ratioP1;P1;durP2;ratioP2;P2;SDS_P1;SDS_P2;PMS_P1;PMS_P2;Temp;Humidity;BMP_temperature;BMP_pressure;BME280_temperature;BME280_humidity;BME280_pressure;Samples;Min_cycle;Max_cycle;Signal;HPM_P1;HPM_P2
2023/05/14 00:02:14;;;;;;;21.47;16.47;;;6.80;99.90;;;;;;5076110;28;20607;-75
2023/05/14 00:04:42;;;;;;;22.40;16.57;;;6.70;99.90;;;;;;5076241;28;20232;-75
2023/05/14 00:07:09;;;;;;;22.73;17.00;;;6.70;99.90;;;;;;5076093;28;20197;-74
2023/05/14 00:09:35;;;;;;;23.63;16.60;;;6.70;99.90;;;;;;5076063;28;20198;-75
2023/05/14 00:12:02;;;;;;;20.23;16.40;;;6.60;99.90;;;;;;5075874;28;20198;-74
2023/05/14 00:14:29;;;;;;;23.37;16.83;;;6.70;99.90;;;;;;5075743;28;20197;-74
2023/05/14 00:16:55;;;;;;;20.47;16.53;;;6.60;99.90;;;;;;5075806;28;20707;-74
2023/05/14 00:19:22;;;;;;;24.77;18.27;;;6.50;99.90;;;;;;5075707;28;20222;-75
2023/05/14 00:21:50;;;;;;;21.27;17.60;;;6.50;99.90;;;;;;5075579;28;20660;-74
2023/05/14 00:24:16;;;;;;;17.87;15.47;;;6.50;99.90;;;;;;5075660;28;20227;-74
2023/05/14 00:26:43;;;;;;;22.00;17.20;;;6.40;99.90;;;;;;5075551;28;20250;-74
2023/05/14 00:29:10;;;;;;;22.33;16.20;;;6.30;99.90;;;;;;5075529;28;20208;-74
2023/05/14 00:31:36;;;;;;;24.83;18.07;;;6.50;99.90;;;;;;5075634;28;20193;-74
2023/05/14 00:34:03;;;;;;;22.87;18.23;;;6.60;99.90;;;;;;5075484;28;20242;-74
2023/05/14 00:36:30;;;;;;;22.73;17.33;;;6.60;99.90;;;;;;5075501;28;20203;-74
2023/05/14 00:38:58;;;;;;;21.73;16.93;;;6.70;99.90;;;;;;5075325;28;20323;-74
2023/05/14 00:41:24;;;;;;;22.47;17.90;;;6.70;99.90;;;;;;5075173;28;20207;-74
2023/05/14 00:43:51;;;;;;;22.87;17.77;;;6.70;99.90;;;;;;5075184;28;20274;-74
2023/05/14 00:46:18;;;;;;;20.10;16.97;;;6.70;99.90;;;;;;5075505;28;20202;-74
2023/05/14 00:48:45;;;;;;;22.17;16.97;;;6.60;99.90;;;;;;5075374;28;20196;-74
2023/05/14 00:51:11;;;;;;;23.00;17.33;;;6.50;99.90;;;;;;5074471;28;20275;-74
2023/05/14 00:53:39;;;;;;;24.27;18.20;;;6.40;99.90;;;;;;5074940;28;20558;-74
2023/05/14 00:56:08;;;;;;;21.57;18.07;;;6.40;99.90;;;;;;5075282;28;20254;-74
2023/05/14 00:58:34;;;;;;;23.57;18.00;;;6.60;99.90;;;;;;5077781;28;20201;-72
2023/05/14 01:01:01;;;;;;;22.43;18.47;;;6.60;99.90;;;;;;5075223;28;20228;-73
2023/05/14 01:03:29;;;;;;;23.40;18.03;;;6.80;99.90;;;;;;5075137;28;20291;-73
2023/05/14 01:05:59;;;;;;;21.40;17.80;;;6.80;99.90;;;;;;5074855;28;20706;-73
2023/05/14 01:08:36;;;;;;;20.93;17.43;;;6.80;99.90;;;;;;5074875;28;20203;-73
2023/05/14 01:11:09;;;;;;;24.27;18.13;;;6.80;99.90;;;;;;5074697;28;20252;-73
2023/05/14 01:13:43;;;;;;;25.90;18.40;;;6.80;99.90;;;;;;5074921;28;20197;-74
2023/05/14 01:16:13;;;;;;;22.07;18.17;;;6.80;99.90;;;;;;5074753;28;20794;-74
2023/05/14 01:18:42;;;;;;;26.10;18.10;;;6.80;99.90;;;;;;5074616;28;20193;-74
2023/05/14 01:21:34;;;;;;;21.97;17.27;;;6.80;99.90;;;;;;5074306;28;20688;-75
2023/05/14 01:24:02;;;;;;;21.53;17.23;;;6.80;99.90;;;;;;5074619;28;20294;-74
2023/05/14 01:26:30;;;;;;;28.07;18.47;;;6.80;99.90;;;;;;5074525;28;20201;-75
2023/05/14 01:29:01;;;;;;;21.83;17.33;;;6.80;99.90;;;;;;5074419;28;20193;-75
2023/05/14 01:31:32;;;;;;;22.47;18.50;;;6.90;99.90;;;;;;5074206;28;20201;-75
2023/05/14 01:34:00;;;;;;;24.33;18.33;;;6.80;99.90;;;;;;5074593;28;20201;-75
2023/05/14 01:36:28;;;;;;;22.17;17.27;;;6.80;99.90;;;;;;5074344;28;20195;-74
2023/05/14 01:38:56;;;;;;;23.67;17.67;;;6.90;99.90;;;;;;5074308;28;20281;-74
2023/05/14 01:41:25;;;;;;;22.13;16.93;;;7.00;99.90;;;;;;5073851;28;20254;-73
2023/05/14 01:43:52;;;;;;;20.83;17.60;;;7.00;99.90;;;;;;5073945;28;20656;-73
2023/05/14 01:46:19;;;;;;;22.77;17.00;;;7.20;99.90;;;;;;5073987;28;20201;-73
2023/05/14 01:48:46;;;;;;;23.30;18.47;;;7.20;99.90;;;;;;5074082;28;20653;-73
2023/05/14 01:51:13;;;;;;;24.10;17.77;;;7.30;99.90;;;;;;5074010;28;20227;-73
2023/05/14 01:53:40;;;;;;;22.03;18.03;;;7.40;99.90;;;;;;5073798;28;20228;-75
2023/05/14 01:56:07;;;;;;;21.30;17.40;;;7.50;99.90;;;;;;5073926;28;20207;-73
2023/05/14 01:58:35;;;;;;;21.73;16.80;;;7.50;99.90;;;;;;5073658;28;20253;-73
2023/05/14 02:01:01;;;;;;;20.83;16.57;;;7.40;99.90;;;;;;5073250;28;20250;-73
2023/05/14 02:03:28;;;;;;;17.33;15.10;;;7.40;99.90;;;;;;5073419;28;20262;-73
2023/05/14 02:05:54;;;;;;;18.57;15.63;;;7.40;99.90;;;;;;5073777;28;20192;-74
2023/05/14 02:08:21;;;;;;;24.53;15.70;;;7.50;99.90;;;;;;5073676;28;20208;-73
2023/05/14 02:10:48;;;;;;;18.40;15.33;;;7.60;99.90;;;;;;5073550;28;20197;-73
2023/05/14 02:13:14;;;;;;;17.23;14.30;;;7.70;99.90;;;;;;5073418;28;20197;-73
2023/05/14 02:15:42;;;;;;;18.40;15.23;;;7.80;99.90;;;;;;5073446;28;20671;-73
2023/05/14 02:18:09;;;;;;;18.50;14.67;;;7.90;99.90;;;;;;5073552;28;20223;-74
2023/05/14 02:20:35;;;;;;;16.07;14.37;;;8.00;99.90;;;;;;5073391;28;20224;-73
2023/05/14 02:23:02;;;;;;;20.43;15.50;;;7.90;99.90;;;;;;5073270;28;20201;-73
2023/05/14 02:25:29;;;;;;;18.07;16.07;;;7.90;99.90;;;;;;5073256;28;20250;-73
2023/05/14 02:27:55;;;;;;;17.03;14.67;;;8.00;99.90;;;;;;5073144;28;20248;-74
2023/05/14 02:30:22;;;;;;;17.10;14.30;;;8.00;99.90;;;;;;5073392;28;20262;-74
2023/05/14 02:32:50;;;;;;;16.37;13.87;;;8.10;99.90;;;;;;5073368;28;20197;-74
2023/05/14 02:35:17;;;;;;;15.40;13.80;;;8.10;99.90;;;;;;5073137;28;20652;-73
2023/05/14 02:37:43;;;;;;;18.93;13.87;;;8.20;99.90;;;;;;5073152;28;20608;-74
2023/05/14 02:40:11;;;;;;;17.50;13.83;;;8.20;99.90;;;;;;5073034;28;20263;-72
2023/05/14 02:42:37;;;;;;;13.73;12.33;;;8.30;99.90;;;;;;5073120;28;20258;-73
2023/05/14 02:45:05;;;;;;;14.70;13.10;;;8.30;99.90;;;;;;5072926;28;20647;-74
2023/05/14 02:47:31;;;;;;;19.47;12.83;;;8.30;99.90;;;;;;5073083;28;20285;-74
2023/05/14 02:49:59;;;;;;;17.20;12.97;;;8.30;99.90;;;;;;5073105;28;20197;-75
2023/05/14 02:52:26;;;;;;;14.67;13.27;;;8.20;99.90;;;;;;5072859;28;20221;-74
2023/05/14 02:54:53;;;;;;;15.20;13.10;;;8.20;99.90;;;;;;5072810;28;20536;-74
2023/05/14 02:57:20;;;;;;;15.10;12.77;;;8.10;99.90;;;;;;5073142;28;20652;-74
2023/05/14 02:59:50;;;;;;;15.63;13.13;;;8.20;99.90;;;;;;5073370;28;20197;-74
2023/05/14 03:02:17;;;;;;;15.27;12.57;;;8.10;99.90;;;;;;5072930;28;20723;-74
2023/05/14 03:04:43;;;;;;;13.57;12.13;;;8.00;99.90;;;;;;5072878;28;20193;-74
2023/05/14 03:07:11;;;;;;;13.50;12.07;;;7.90;99.90;;;;;;5072751;28;20200;-74
2023/05/14 03:09:38;;;;;;;13.97;12.57;;;7.90;99.90;;;;;;5072720;28;20254;-74
2023/05/14 03:12:05;;;;;;;12.90;11.50;;;8.00;99.90;;;;;;5072637;28;20250;-74
2023/05/14 03:14:32;;;;;;;13.60;12.10;;;8.00;99.90;;;;;;5072501;28;20196;-74
2023/05/14 03:16:58;;;;;;;14.40;12.90;;;8.10;99.90;;;;;;5072746;28;20201;-74
2023/05/14 03:19:25;;;;;;;14.73;12.50;;;8.10;99.90;;;;;;5072760;28;20200;-74
2023/05/14 03:21:52;;;;;;;14.60;12.10;;;8.10;99.90;;;;;;5072515;28;20274;-74
2023/05/14 03:24:20;;;;;;;14.20;12.70;;;8.20;99.90;;;;;;5072534;28;20486;-74
2023/05/14 03:26:46;;;;;;;14.90;13.40;;;8.30;99.90;;;;;;5072720;28;20193;-74
2023/05/14 03:29:16;;;;;;;17.27;13.33;;;8.30;99.90;;;;;;5072637;28;20200;-74
2023/05/14 03:31:43;;;;;;;14.63;13.07;;;8.40;99.90;;;;;;5072516;28;20228;-74
2023/05/14 03:34:10;;;;;;;15.23;13.63;;;8.40;99.90;;;;;;5072543;28;20193;-74
2023/05/14 03:36:38;;;;;;;15.70;14.00;;;8.50;99.90;;;;;;5072458;28;20193;-74
2023/05/14 03:39:05;;;;;;;15.80;14.10;;;8.60;99.90;;;;;;5072704;28;20204;-74
2023/05/14 03:41:33;;;;;;;16.93;14.73;;;8.70;99.90;;;;;;5072420;28;20228;-74
2023/05/14 03:44:00;;;;;;;15.00;13.43;;;8.70;99.90;;;;;;5072660;28;20207;-74
2023/05/14 03:46:27;;;;;;;15.87;14.13;;;8.80;99.90;;;;;;5072462;28;20242;-74
2023/05/14 03:48:53;;;;;;;15.37;13.77;;;8.90;99.90;;;;;;5072382;28;20193;-74
2023/05/14 03:51:20;;;;;;;16.23;14.53;;;8.90;99.90;;;;;;5072379;28;20600;-74
2023/05/14 03:53:47;;;;;;;16.20;14.37;;;9.00;99.90;;;;;;5072191;28;20290;-74
2023/05/14 03:56:13;;;;;;;17.10;14.93;;;9.00;99.90;;;;;;5072430;28;20201;-74
2023/05/14 03:58:41;;;;;;;16.73;14.70;;;9.00;99.90;;;;;;5072306;28;20251;-74
2023/05/14 04:01:08;;;;;;;15.97;14.40;;;9.00;99.90;;;;;;5072205;28;20688;-74
2023/05/14 04:03:35;;;;;;;15.57;13.97;;;9.10;99.90;;;;;;5072306;28;20247;-74
2023/05/14 04:06:01;;;;;;;16.23;14.50;;;9.10;99.90;;;;;;5072387;28;20201;-74
2023/05/14 04:08:28;;;;;;;14.33;12.73;;;9.10;99.90;;;;;;5072399;28;20263;-74
2023/05/14 04:10:55;;;;;;;15.60;13.30;;;9.20;99.90;;;;;;5072288;28;20604;-74
2023/05/14 04:13:21;;;;;;;14.83;13.43;;;9.30;99.90;;;;;;5072141;28;20197;-74
2023/05/14 04:15:49;;;;;;;14.43;12.97;;;9.30;99.90;;;;;;5072200;28;20246;-74
2023/05/14 04:18:16;;;;;;;16.40;14.63;;;9.30;99.90;;;;;;5072036;28;20201;-75
2023/05/14 04:20:42;;;;;;;14.97;13.37;;;9.30;99.90;;;;;;5072263;28;20221;-74
2023/05/14 04:23:09;;;;;;;13.93;12.57;;;9.30;99.90;;;;;;5072079;28;20255;-74
2023/05/14 04:25:36;;;;;;;14.23;12.53;;;9.40;99.90;;;;;;5073757;28;20193;-74
2023/05/14 04:28:02;;;;;;;14.67;13.17;;;9.40;99.90;;;;;;5075674;28;20197;-74
2023/05/14 04:30:29;;;;;;;14.03;12.63;;;9.50;99.90;;;;;;5075759;28;20201;-74
2023/05/14 04:32:57;;;;;;;14.03;12.63;;;9.50;99.90;;;;;;5076216;28;20197;-74
2023/05/14 04:35:24;;;;;;;13.43;12.07;;;9.50;99.90;;;;;;5075988;28;20258;-74
2023/05/14 04:37:51;;;;;;;13.43;12.13;;;9.50;99.90;;;;;;5076275;28;20197;-74
2023/05/14 04:40:18;;;;;;;13.57;12.20;;;9.60;99.90;;;;;;5076104;28;20587;-74
2023/05/14 04:42:44;;;;;;;13.33;11.93;;;9.60;99.90;;;;;;5076336;28;20281;-74
2023/05/14 04:45:12;;;;;;;14.53;12.77;;;9.70;99.90;;;;;;5075879;28;20193;-74
2023/05/14 04:47:39;;;;;;;13.37;12.07;;;9.70;99.90;;;;;;5075988;28;20287;-74
2023/05/14 04:50:09;;;;;;;13.20;11.90;;;9.80;99.90;;;;;;5075319;28;20266;-74
2023/05/14 04:52:36;;;;;;;12.87;11.63;;;9.80;99.90;;;;;;5075028;28;20259;-74
2023/05/14 04:55:03;;;;;;;13.73;12.20;;;9.80;99.90;;;;;;5075101;28;20258;-74
2023/05/14 04:57:29;;;;;;;13.70;12.27;;;9.80;99.90;;;;;;5075043;28;20203;-74
2023/05/14 04:59:56;;;;;;;12.73;11.40;;;9.80;99.90;;;;;;5074798;28;20243;-74
2023/05/14 05:02:23;;;;;;;12.97;11.43;;;9.90;99.90;;;;;;5075072;28;20225;-74
2023/05/14 05:04:49;;;;;;;13.47;12.13;;;10.00;99.90;;;;;;5075013;28;20205;-74
2023/05/14 05:07:17;;;;;;;12.40;11.20;;;10.00;99.90;;;;;;5075022;28;20259;-74
2023/05/14 05:09:44;;;;;;;13.60;12.27;;;10.00;99.90;;;;;;5074828;28;20204;-74
2023/05/14 05:12:10;;;;;;;13.13;10.80;;;10.10;99.90;;;;;;5074829;28;20205;-72
2023/05/14 05:14:37;;;;;;;12.53;11.33;;;10.20;99.90;;;;;;5074546;28;20774;-73
2023/05/14 05:17:04;;;;;;;11.83;10.73;;;10.30;99.90;;;;;;5074799;28;20192;-73
2023/05/14 05:19:31;;;;;;;11.50;10.40;;;10.40;99.90;;;;;;5074729;28;20254;-73
2023/05/14 05:21:57;;;;;;;11.63;10.53;;;10.50;99.90;;;;;;5074541;28;20225;-73
2023/05/14 05:24:25;;;;;;;12.50;11.30;;;10.60;99.90;;;;;;5074473;28;20194;-74
2023/05/14 05:26:52;;;;;;;12.83;11.53;;;10.70;99.90;;;;;;5074350;28;20197;-73
2023/05/14 05:29:19;;;;;;;11.67;10.47;;;10.80;99.90;;;;;;5074306;28;20204;-73
2023/05/14 05:31:46;;;;;;;11.77;10.57;;;10.80;99.90;;;;;;5074462;28;20604;-73
2023/05/14 05:34:12;;;;;;;12.80;10.87;;;10.90;99.90;;;;;;5074332;28;20553;-74
2023/05/14 05:36:39;;;;;;;11.07;9.97;;;11.00;99.90;;;;;;5074002;28;20205;-73
2023/05/14 05:39:06;;;;;;;12.53;11.30;;;11.00;99.90;;;;;;5074179;28;20200;-74
2023/05/14 05:41:34;;;;;;;11.23;10.13;;;11.10;99.90;;;;;;5073978;28;20237;-74
2023/05/14 05:44:00;;;;;;;11.43;10.33;;;11.20;99.90;;;;;;5074385;28;20205;-73
2023/05/14 05:46:27;;;;;;;22.00;17.27;;;11.20;99.90;;;;;;5074107;28;20219;-74
2023/05/14 05:48:53;;;;;;;17.13;15.10;;;11.30;99.90;;;;;;5074053;28;20201;-74
2023/05/14 05:51:20;;;;;;;14.07;12.13;;;11.40;99.90;;;;;;5073974;28;20205;-73
2023/05/14 05:53:47;;;;;;;12.83;11.00;;;11.30;99.90;;;;;;5073735;28;20289;-73
2023/05/14 05:56:13;;;;;;;11.47;10.37;;;11.40;99.90;;;;;;5073657;28;20653;-73
2023/05/14 05:58:41;;;;;;;11.80;10.60;;;11.50;99.90;;;;;;5074000;28;20254;-73
2023/05/14 06:01:08;;;;;;;11.37;10.17;;;11.50;99.90;;;;;;5073601;28;20745;-73
2023/05/14 06:03:34;;;;;;;11.67;10.47;;;11.60;99.90;;;;;;5073821;28;20201;-74
2023/05/14 06:06:01;;;;;;;10.50;9.50;;;11.60;99.90;;;;;;5081376;28;20205;-75
2023/05/14 06:08:28;;;;;;;11.13;10.03;;;11.70;99.90;;;;;;5074181;28;20200;-74
2023/05/14 06:10:54;;;;;;;9.90;9.00;;;11.80;99.90;;;;;;5073692;28;20201;-73
2023/05/14 06:13:21;;;;;;;10.50;9.50;;;12.00;99.90;;;;;;5073824;28;20197;-74
2023/05/14 06:15:49;;;;;;;10.93;10.00;;;12.00;99.90;;;;;;5073686;28;20253;-73
2023/05/14 06:18:16;;;;;;;10.10;9.10;;;12.10;99.90;;;;;;5073702;28;20262;-74
2023/05/14 06:20:42;;;;;;;10.53;9.53;;;12.20;99.90;;;;;;5073495;28;20220;-74
2023/05/14 06:23:11;;;;;;;11.10;10.00;;;12.30;99.90;;;;;;5073444;28;20208;-74
2023/05/14 06:25:37;;;;;;;10.30;9.33;;;12.50;99.90;;;;;;5073324;28;20648;-73
2023/05/14 06:28:04;;;;;;;10.80;9.80;;;12.70;99.90;;;;;;5073490;28;20193;-74
2023/05/14 06:30:31;;;;;;;10.77;9.67;;;12.70;99.90;;;;;;5073485;28;20247;-74
2023/05/14 06:32:59;;;;;;;10.87;9.87;;;12.80;99.90;;;;;;5073230;28;20201;-74
2023/05/14 06:35:25;;;;;;;10.57;9.17;;;13.00;99.90;;;;;;5073138;28;20197;-73
2023/05/14 06:37:52;;;;;;;10.20;9.23;;;13.20;99.90;;;;;;5072920;28;20258;-74
2023/05/14 06:40:19;;;;;;;9.87;8.83;;;13.20;99.90;;;;;;5073144;28;20200;-73
2023/05/14 06:42:46;;;;;;;10.63;9.63;;;13.50;99.90;;;;;;5073151;28;20224;-74
2023/05/14 06:45:12;;;;;;;10.13;9.13;;;13.70;99.90;;;;;;5072958;28;20201;-73
2023/05/14 06:47:39;;;;;;;9.47;8.57;;;13.90;99.90;;;;;;5072398;28;20603;-74
2023/05/14 06:50:07;;;;;;;8.90;8.10;;;13.90;99.90;;;;;;5072825;28;20239;-74
2023/05/14 06:52:34;;;;;;;9.52;8.60;;;14.20;99.90;;;;;;5072596;28;20623;-75
2023/05/14 06:55:01;;;;;;;9.57;8.25;;;14.40;99.90;;;;;;5072971;28;20236;-73
2023/05/14 06:57:27;;;;;;;9.02;8.23;;;14.50;99.90;;;;;;5072909;28;20595;-73
2023/05/14 06:59:54;;;;;;;8.25;7.55;;;15.00;99.90;;;;;;5072736;28;20200;-73
2023/05/14 07:02:21;;;;;;;8.98;8.18;;;15.30;99.90;;;;;;5072705;28;20225;-73
2023/05/14 07:04:47;;;;;;;9.00;8.20;;;15.60;99.90;;;;;;5072701;28;20193;-73
2023/05/14 07:07:19;;;;;;;9.20;8.40;;;15.80;99.90;;;;;;5072637;28;20208;-74
2023/05/14 07:09:45;;;;;;;8.60;7.80;;;16.00;99.90;;;;;;5072749;28;20266;-73
2023/05/14 07:12:12;;;;;;;8.30;7.50;;;16.10;99.90;;;;;;5072595;28;20648;-73
2023/05/14 07:14:39;;;;;;;8.35;7.60;;;16.00;99.90;;;;;;5072726;28;20197;-73
2023/05/14 07:17:05;;;;;;;8.27;7.57;;;16.10;99.90;;;;;;5072640;28;20610;-75
2023/05/14 07:19:32;;;;;;;9.02;8.13;;;15.90;99.90;;;;;;5072634;28;20201;-74
2023/05/14 07:21:58;;;;;;;8.90;8.10;;;15.60;99.90;;;;;;5072709;28;20216;-73
2023/05/14 07:24:26;;;;;;;8.90;8.00;;;15.70;99.90;;;;;;5072729;28;20196;-73
2023/05/14 07:26:56;;;;;;;8.32;7.63;;;15.60;99.90;;;;;;5072632;28;20193;-73
2023/05/14 07:29:23;;;;;;;8.55;7.53;;;15.60;99.90;;;;;;5072610;28;20211;-73
2023/05/14 07:31:50;;;;;;;9.23;7.63;;;15.60;99.90;;;;;;5072477;28;20201;-74
2023/05/14 07:34:17;;;;;;;8.60;7.80;;;15.80;99.90;;;;;;5072457;28;20690;-74
2023/05/14 07:36:44;;;;;;;8.48;7.78;;;15.80;99.90;;;;;;5072707;28;20201;-74
2023/05/14 07:39:11;;;;;;;8.18;7.38;;;15.80;99.90;;;;;;5072856;28;20205;-74
2023/05/14 07:41:39;;;;;;;8.95;7.57;;;15.80;99.90;;;;;;5072579;28;20221;-75
2023/05/14 07:44:05;;;;;;;8.50;7.70;;;15.80;99.90;;;;;;5072653;28;20197;-74
2023/05/14 07:46:32;;;;;;;8.35;7.55;;;15.80;99.90;;;;;;5072431;28;20722;-75
2023/05/14 07:48:58;;;;;;;8.70;7.78;;;16.00;99.90;;;;;;5072798;28;20213;-74
2023/05/14 07:51:27;;;;;;;7.65;7.03;;;16.10;99.90;;;;;;5072596;28;20201;-74
2023/05/14 07:53:54;;;;;;;8.80;8.00;;;16.10;99.90;;;;;;5072440;28;20229;-74
2023/05/14 07:56:21;;;;;;;8.55;7.80;;;16.00;99.90;;;;;;5072483;28;20302;-74
2023/05/14 07:58:49;;;;;;;9.18;8.27;;;16.10;99.90;;;;;;5072886;28;20201;-74
2023/05/14 08:01:15;;;;;;;8.90;7.40;;;16.30;99.90;;;;;;5075975;28;20201;-74
2023/05/14 08:03:42;;;;;;;7.93;7.25;;;16.60;99.90;;;;;;5076004;28;20691;-75
2023/05/14 08:06:09;;;;;;;8.45;7.65;;;16.70;99.90;;;;;;5076174;28;20197;-74
2023/05/14 08:08:35;;;;;;;8.23;7.43;;;16.60;99.90;;;;;;5075900;28;20674;-75
2023/05/14 08:11:02;;;;;;;7.97;7.18;;;16.80;99.90;;;;;;5075984;28;20197;-75
2023/05/14 08:13:29;;;;;;;8.05;7.32;;;17.00;99.90;;;;;;5075710;28;20556;-75
2023/05/14 08:15:57;;;;;;;8.07;7.28;;;17.10;99.90;;;;;;5075621;28;20197;-74
2023/05/14 08:18:24;;;;;;;7.75;7.05;;;17.60;99.90;;;;;;5075875;28;20201;-75
2023/05/14 08:20:51;;;;;;;7.60;7.00;;;17.80;99.90;;;;;;5075738;28;20223;-75
2023/05/14 08:23:17;;;;;;;7.20;6.60;;;17.90;99.90;;;;;;5075607;28;20228;-74
2023/05/14 08:25:44;;;;;;;7.15;6.53;;;17.90;99.90;;;;;;5075838;28;20258;-75
2023/05/14 08:28:10;;;;;;;7.45;6.85;;;17.90;99.90;;;;;;5075648;28;20258;-75
2023/05/14 08:30:37;;;;;;;7.03;6.43;;;17.70;99.90;;;;;;5075849;28;20200;-75
2023/05/14 08:33:05;;;;;;;7.10;6.50;;;17.80;99.90;;;;;;5075681;28;20246;-74
2023/05/14 08:35:32;;;;;;;7.40;6.72;;;17.80;99.90;;;;;;5075248;28;20548;-74
2023/05/14 08:37:58;;;;;;;8.15;7.45;;;17.70;99.90;;;;;;5075780;28;20201;-75
2023/05/14 08:40:25;;;;;;;7.30;6.40;;;17.90;99.90;;;;;;5075934;28;20262;-76
2023/05/14 08:42:52;;;;;;;7.13;6.43;;;18.20;99.90;;;;;;5075377;28;20221;-75
2023/05/14 08:45:20;;;;;;;7.78;7.10;;;18.30;99.90;;;;;;5075276;28;20649;-74
2023/05/14 08:47:49;;;;;;;7.35;6.50;;;17.80;99.90;;;;;;5075277;28;20208;-75
2023/05/14 08:50:18;;;;;;;6.65;6.05;;;17.80;99.90;;;;;;5075180;28;20197;-76
2023/05/14 08:52:45;;;;;;;6.65;6.07;;;18.00;99.90;;;;;;5075004;28;20279;-74
2023/05/14 08:55:12;;;;;;;6.78;6.18;;;18.00;99.90;;;;;;5075116;28;20647;-74
2023/05/14 08:57:39;;;;;;;6.68;6.07;;;17.90;99.90;;;;;;5075379;28;20289;-75
2023/05/14 09:00:10;;;;;;;6.18;5.60;;;17.60;99.90;;;;;;5075195;28;20238;-75
2023/05/14 09:02:38;;;;;;;6.97;6.38;;;17.40;99.90;;;;;;5074987;28;20304;-74
2023/05/14 09:05:08;;;;;;;6.50;5.90;;;17.20;99.90;;;;;;5075125;28;20197;-75
2023/05/14 09:07:36;;;;;;;5.85;5.35;;;17.20;99.90;;;;;;5074953;28;20205;-74
2023/05/14 09:10:03;;;;;;;7.32;5.35;;;17.50;99.90;;;;;;5074749;28;20227;-74
2023/05/14 09:12:30;;;;;;;6.15;5.50;;;17.80;99.90;;;;;;5074271;28;20197;-74
2023/05/14 09:14:57;;;;;;;6.88;6.28;;;17.90;99.90;;;;;;5074981;28;20208;-74
2023/05/14 09:17:26;;;;;;;5.75;5.25;;;18.00;99.90;;;;;;5074850;28;20230;-74
2023/05/14 09:19:53;;;;;;;6.25;5.65;;;18.10;99.90;;;;;;5074547;28;20675;-73
2023/05/14 09:22:20;;;;;;;5.97;5.28;;;17.80;99.90;;;;;;5074526;28;20223;-74
2023/05/14 09:25:02;;;;;;;7.45;6.03;;;18.00;99.90;;;;;;5074707;28;20274;-74
2023/05/14 09:27:30;;;;;;;6.32;5.72;;;17.90;99.90;;;;;;5074614;28;20193;-74
2023/05/14 09:30:04;;;;;;;5.60;5.10;;;17.80;99.90;;;;;;5074432;28;20584;-74
2023/05/14 09:32:36;;;;;;;5.78;5.28;;;18.00;99.90;;;;;;5074403;28;20200;-74
2023/05/14 09:35:10;;;;;;;5.97;5.40;;;18.00;99.90;;;;;;5074324;28;20205;-74
2023/05/14 09:37:37;;;;;;;6.78;6.18;;;18.00;99.90;;;;;;5074477;28;20196;-74
2023/05/14 09:40:08;;;;;;;6.55;5.95;;;18.10;99.90;;;;;;5077635;28;20730;-75
2023/05/14 09:42:35;;;;;;;5.90;5.40;;;18.00;99.90;;;;;;5074756;28;20250;-74
2023/05/14 09:45:03;;;;;;;6.20;5.70;;;18.40;99.90;;;;;;5074193;28;20266;-75
2023/05/14 09:47:30;;;;;;;6.00;5.45;;;18.80;99.90;;;;;;5074126;28;20221;-74
2023/05/14 09:49:56;;;;;;;6.32;5.82;;;19.20;99.90;;;;;;5074040;28;20533;-75
2023/05/14 09:52:24;;;;;;;7.05;6.45;;;19.70;99.90;;;;;;5073942;28;20279;-75
2023/05/14 09:54:52;;;;;;;7.70;5.90;;;19.90;99.90;;;;;;5074011;28;20196;-75
2023/05/14 09:57:20;;;;;;;6.63;6.10;;;20.10;99.90;;;;;;5073771;28;20713;-75
2023/05/14 09:59:47;;;;;;;8.35;6.88;;;20.30;99.90;;;;;;5073789;28;20197;-75
2023/05/14 10:02:20;;;;;;;6.60;6.00;;;20.20;99.90;;;;;;5073863;28;20266;-75
2023/05/14 10:04:48;;;;;;;8.07;6.45;;;19.90;99.90;;;;;;5073886;28;20251;-75
2023/05/14 10:07:18;;;;;;;7.47;6.53;;;20.10;99.90;;;;;;5073761;28;20200;-74
2023/05/14 10:09:46;;;;;;;7.32;6.72;;;19.40;99.90;;;;;;5073516;28;20201;-74
2023/05/14 10:12:16;;;;;;;7.90;7.00;;;18.40;99.90;;;;;;5073535;28;20251;-74
2023/05/14 10:14:52;;;;;;;7.95;7.15;;;17.60;99.90;;;;;;5073503;28;20193;-74
2023/05/14 10:17:21;;;;;;;6.85;6.25;;;18.50;99.90;;;;;;5073684;28;20204;-74
2023/05/14 10:19:52;;;;;;;6.80;6.03;;;18.70;99.90;;;;;;5073551;28;20197;-74
2023/05/14 10:22:23;;;;;;;7.05;6.43;;;18.80;99.90;;;;;;5072484;28;20683;-74
2023/05/14 10:24:51;;;;;;;6.70;6.10;;;19.20;99.90;;;;;;5073197;28;20207;-74
2023/05/14 10:27:18;;;;;;;6.32;5.72;;;19.20;99.90;;;;;;5073535;28;20553;-74
2023/05/14 10:29:53;;;;;;;6.97;6.28;;;19.20;99.90;;;;;;5073426;28;20200;-74
2023/05/14 10:32:20;;;;;;;7.20;6.50;;;19.00;99.90;;;;;;5073188;28;20200;-74
2023/05/14 10:34:47;;;;;;;6.93;6.32;;;19.30;99.90;;;;;;5073315;28;20246;-74
2023/05/14 10:37:17;;;;;;;7.55;6.85;;;19.20;99.90;;;;;;5073239;28;20599;-74
2023/05/14 10:39:45;;;;;;;6.75;6.15;;;19.00;99.90;;;;;;5073212;28;20197;-74
2023/05/14 10:42:13;;;;;;;6.22;5.72;;;19.80;99.90;;;;;;5073142;28;20192;-74
2023/05/14 10:44:50;;;;;;;6.88;5.70;;;20.40;99.90;;;;;;5073073;28;20542;-75
2023/05/14 10:47:17;;;;;;;5.53;5.03;;;20.60;99.90;;;;;;5073026;28;20607;-75
2023/05/14 10:49:47;;;;;;;6.75;6.15;;;20.70;99.90;;;;;;5073114;28;20197;-75
2023/05/14 10:52:17;;;;;;;6.30;5.70;;;20.50;99.90;;;;;;5073071;28;20233;-75
2023/05/14 10:54:49;;;;;;;6.22;5.63;;;19.70;99.90;;;;;;5073201;28;20216;-74
2023/05/14 10:57:18;;;;;;;6.03;5.53;;;19.40;99.90;;;;;;5073046;28;20225;-74
2023/05/14 10:59:44;;;;;;;6.60;6.00;;;19.50;99.90;;;;;;5072850;28;20658;-74
2023/05/14 11:02:24;;;;;;;6.68;6.07;;;18.80;99.90;;;;;;5072832;28;20254;-74
2023/05/14 11:04:54;;;;;;;6.05;5.55;;;19.20;99.90;;;;;;5072732;28;20726;-74
2023/05/14 11:07:24;;;;;;;6.45;5.78;;;18.70;99.90;;;;;;5073072;28;20605;-75
2023/05/14 11:09:51;;;;;;;7.20;6.50;;;18.00;99.90;;;;;;5072964;28;20197;-74
2023/05/14 11:12:18;;;;;;;6.40;5.88;;;17.50;99.90;;;;;;5072837;28;20538;-74
2023/05/14 11:14:46;;;;;;;7.45;6.65;;;18.00;99.90;;;;;;5072778;28;20207;-73
2023/05/14 11:17:13;;;;;;;6.07;5.57;;;18.70;99.90;;;;;;5072643;28;20664;-74
2023/05/14 11:19:43;;;;;;;7.25;5.93;;;18.00;99.90;;;;;;5072827;28;20596;-73
2023/05/14 11:22:12;;;;;;;6.13;5.63;;;17.40;99.90;;;;;;5072833;28;20196;-73
2023/05/14 11:24:39;;;;;;;5.70;5.20;;;17.30;99.90;;;;;;5072419;28;20715;-74
2023/05/14 11:27:07;;;;;;;5.88;5.28;;;18.50;99.90;;;;;;5072711;28;20197;-74
2023/05/14 11:29:34;;;;;;;5.50;4.97;;;19.00;99.90;;;;;;5072543;28;20201;-74
2023/05/14 11:32:02;;;;;;;5.80;5.20;;;19.60;99.90;;;;;;5072809;28;20212;-73
2023/05/14 11:34:28;;;;;;;5.50;5.00;;;20.00;99.90;;;;;;5074511;28;20201;-74
2023/05/14 11:36:56;;;;;;;5.40;4.90;;;19.00;99.90;;;;;;5076708;28;20270;-74
2023/05/14 11:39:23;;;;;;;5.32;4.82;;;18.80;99.90;;;;;;5076720;28;20200;-73
2023/05/14 11:41:49;;;;;;;5.15;4.75;;;18.00;99.90;;;;;;5076492;28;20254;-74
2023/05/14 11:44:17;;;;;;;5.68;5.18;;;18.70;99.90;;;;;;5076283;28;20266;-74
2023/05/14 11:46:54;;;;;;;5.13;4.68;;;18.90;99.90;;;;;;5076595;28;20197;-73
2023/05/14 11:49:21;;;;;;;5.38;4.68;;;19.00;99.90;;;;;;5076570;28;20349;-73
2023/05/14 11:51:48;;;;;;;5.70;5.00;;;19.20;99.90;;;;;;5076213;28;20201;-74
2023/05/14 11:54:16;;;;;;;5.05;4.63;;;19.40;99.90;;;;;;5076261;28;20201;-74
2023/05/14 11:56:42;;;;;;;5.38;4.88;;;19.60;99.90;;;;;;5076218;28;20246;-74
2023/05/14 11:59:11;;;;;;;5.60;5.10;;;19.40;99.90;;;;;;5076377;28;20201;-75
2023/05/14 12:01:38;;;;;;;5.35;4.93;;;20.30;99.90;;;;;;5076248;28;20200;-75
2023/05/14 12:04:05;;;;;;;4.97;4.57;;;21.20;99.90;;;;;;5076018;28;20229;-75
2023/05/14 12:06:32;;;;;;;4.40;4.03;;;22.90;99.90;;;;;;5076101;28;20250;-75
2023/05/14 12:09:00;;;;;;;5.05;4.45;;;23.50;98.20;;;;;;5075932;28;20200;-76
2023/05/14 12:11:30;;;;;;;5.47;4.40;;;24.10;95.80;;;;;;5076111;28;20212;-75
2023/05/14 12:13:57;;;;;;;4.93;4.45;;;22.40;93.90;;;;;;5076033;28;20197;-75
2023/05/14 12:16:29;;;;;;;4.45;4.05;;;23.00;94.40;;;;;;5076022;28;20610;-75
2023/05/14 12:18:59;;;;;;;4.20;3.80;;;24.30;92.10;;;;;;5075911;28;20246;-76
2023/05/14 12:21:26;;;;;;;4.25;3.95;;;24.20;90.10;;;;;;5075865;28;20204;-75
2023/05/14 12:23:58;;;;;;;5.43;4.97;;;23.10;88.30;;;;;;5075572;28;20286;-75
2023/05/14 12:26:25;;;;;;;4.30;3.90;;;23.20;91.40;;;;;;5075803;28;20205;-75
2023/05/14 12:28:59;;;;;;;4.10;3.80;;;23.10;88.00;;;;;;5075675;28;20552;-75
2023/05/14 12:31:28;;;;;;;4.60;4.20;;;23.30;89.20;;;;;;5075744;28;20200;-75
2023/05/14 12:33:55;;;;;;;3.95;3.60;;;24.00;86.80;;;;;;5075554;28;20652;-75
2023/05/14 12:36:21;;;;;;;4.68;3.83;;;25.90;82.80;;;;;;5075582;28;20242;-75
2023/05/14 12:38:48;;;;;;;4.68;4.28;;;25.80;77.90;;;;;;5075620;28;20201;-75
2023/05/14 12:41:15;;;;;;;4.20;3.88;;;24.10;77.20;;;;;;5075615;28;20255;-75
2023/05/14 12:43:43;;;;;;;6.13;5.10;;;23.80;79.10;;;;;;5075411;28;20229;-75